sensor_id;sensor_type;location;lat;lon;timestamp;P1;durP1;ratioP1;P2;durP2;ratioP2
56343;SDS011;42245;42.058;24.700;2022-07-06T00:01:18;16.00;;;8.63;;
56343;SDS011;42245;42.058;24.700;2022-07-06T00:03:44;13.02;;;9.43;;
56343;SDS011;42245;42.058;24.700;2022-07-06T00:06:09;30.95;;;8.15;;
56343;SDS011;42245;42.058;24.700;2022-07-06T00:08:35;17.25;;;8.60;;
56343;SDS011;42245;42.058;24.700;2022-07-06T00:11:00;16.42;;;8.20;;
56343;SDS011;42245;42.058;24.700;2022-07-06T00:13:26;12.20;;;8.07;;
56343;SDS011;42245;42.058;24.700;2022-07-06T00:15:52;16.65;;;7.88;;
56343;SDS011;42245;42.058;24.700;2022-07-06T00:18:17;13.77;;;7.75;;
56343;SDS011;42245;42.058;24.700;2022-07-06T00:20:43;12.27;;;7.55;;
56343;SDS011;42245;42.058;24.700;2022-07-06T00:23:08;15.07;;;7.03;;
56343;SDS011;42245;42.058;24.700;2022-07-06T00:25:34;7.20;;;6.07;;
56343;SDS011;42245;42.058;24.700;2022-07-06T00:27:59;16.95;;;6.55;;
56343;SDS011;42245;42.058;24.700;2022-07-06T00:30:24;8.77;;;5.88;;
56343;SDS011;42245;42.058;24.700;2022-07-06T00:32:50;9.93;;;5.97;;
56343;SDS011;42245;42.058;24.700;2022-07-06T00:35:15;13.23;;;5.72;;
56343;SDS011;42245;42.058;24.700;2022-07-06T00:37:40;8.77;;;5.85;;
56343;SDS011;42245;42.058;24.700;2022-07-06T00:40:06;13.05;;;5.45;;
56343;SDS011;42245;42.058;24.700;2022-07-06T00:42:41;10.10;;;5.10;;
56343;SDS011;42245;42.058;24.700;2022-07-06T00:45:12;9.82;;;5.00;;
56343;SDS011;42245;42.058;24.700;2022-07-06T00:47:39;14.63;;;5.13;;
56343;SDS011;42245;42.058;24.700;2022-07-06T00:50:06;16.27;;;5.35;;
56343;SDS011;42245;42.058;24.700;2022-07-06T00:52:39;8.40;;;4.78;;
56343;SDS011;42245;42.058;24.700;2022-07-06T00:55:04;13.57;;;5.20;;
56343;SDS011;42245;42.058;24.700;2022-07-06T00:57:30;9.48;;;5.03;;
56343;SDS011;42245;42.058;24.700;2022-07-06T00:59:56;9.25;;;4.80;;
56343;SDS011;42245;42.058;24.700;2022-07-06T01:02:21;9.60;;;4.80;;
56343;SDS011;42245;42.058;24.700;2022-07-06T01:04:47;11.05;;;4.80;;
56343;SDS011;42245;42.058;24.700;2022-07-06T01:07:13;11.60;;;5.45;;
56343;SDS011;42245;42.058;24.700;2022-07-06T01:09:38;8.77;;;5.28;;
56343;SDS011;42245;42.058;24.700;2022-07-06T01:12:04;9.82;;;4.75;;
56343;SDS011;42245;42.058;24.700;2022-07-06T01:14:30;7.18;;;4.57;;
56343;SDS011;42245;42.058;24.700;2022-07-06T01:16:55;6.65;;;4.72;;
56343;SDS011;42245;42.058;24.700;2022-07-06T01:19:21;9.00;;;4.60;;
56343;SDS011;42245;42.058;24.700;2022-07-06T01:21:47;13.13;;;4.70;;
56343;SDS011;42245;42.058;24.700;2022-07-06T01:24:13;7.68;;;4.55;;
56343;SDS011;42245;42.058;24.700;2022-07-06T01:26:38;11.65;;;4.97;;
56343;SDS011;42245;42.058;24.700;2022-07-06T01:29:04;11.73;;;5.05;;
56343;SDS011;42245;42.058;24.700;2022-07-06T01:31:29;11.98;;;5.03;;
56343;SDS011;42245;42.058;24.700;2022-07-06T01:33:55;10.27;;;5.22;;
56343;SDS011;42245;42.058;24.700;2022-07-06T01:36:21;14.27;;;5.38;;
56343;SDS011;42245;42.058;24.700;2022-07-06T01:38:49;14.65;;;4.60;;
56343;SDS011;42245;42.058;24.700;2022-07-06T01:41:18;11.27;;;5.38;;
56343;SDS011;42245;42.058;24.700;2022-07-06T01:43:44;6.30;;;4.80;;
56343;SDS011;42245;42.058;24.700;2022-07-06T01:46:10;11.43;;;4.75;;
56343;SDS011;42245;42.058;24.700;2022-07-06T01:48:36;10.32;;;5.15;;
56343;SDS011;42245;42.058;24.700;2022-07-06T01:51:02;10.32;;;5.00;;
56343;SDS011;42245;42.058;24.700;2022-07-06T01:53:28;6.95;;;4.85;;
56343;SDS011;42245;42.058;24.700;2022-07-06T01:55:53;5.70;;;4.85;;
56343;SDS011;42245;42.058;24.700;2022-07-06T01:58:18;9.13;;;5.15;;
56343;SDS011;42245;42.058;24.700;2022-07-06T02:00:44;6.43;;;5.22;;
56343;SDS011;42245;42.058;24.700;2022-07-06T02:03:09;12.48;;;5.03;;
56343;SDS011;42245;42.058;24.700;2022-07-06T02:05:35;5.82;;;4.45;;
56343;SDS011;42245;42.058;24.700;2022-07-06T02:08:00;14.02;;;5.28;;
56343;SDS011;42245;42.058;24.700;2022-07-06T02:10:25;11.52;;;5.18;;
56343;SDS011;42245;42.058;24.700;2022-07-06T02:12:51;11.15;;;5.07;;
56343;SDS011;42245;42.058;24.700;2022-07-06T02:15:16;7.07;;;5.13;;
56343;SDS011;42245;42.058;24.700;2022-07-06T02:17:42;7.60;;;5.07;;
56343;SDS011;42245;42.058;24.700;2022-07-06T02:20:07;7.88;;;5.05;;
56343;SDS011;42245;42.058;24.700;2022-07-06T02:22:33;10.35;;;5.05;;
56343;SDS011;42245;42.058;24.700;2022-07-06T02:24:59;9.82;;;5.10;;
56343;SDS011;42245;42.058;24.700;2022-07-06T02:27:24;9.25;;;5.13;;
56343;SDS011;42245;42.058;24.700;2022-07-06T02:29:50;9.80;;;5.35;;
56343;SDS011;42245;42.058;24.700;2022-07-06T02:32:15;8.25;;;5.13;;
56343;SDS011;42245;42.058;24.700;2022-07-06T02:34:41;5.70;;;4.47;;
56343;SDS011;42245;42.058;24.700;2022-07-06T02:37:06;10.93;;;5.10;;
56343;SDS011;42245;42.058;24.700;2022-07-06T02:39:32;11.15;;;5.07;;
56343;SDS011;42245;42.058;24.700;2022-07-06T02:41:57;7.70;;;5.28;;
56343;SDS011;42245;42.058;24.700;2022-07-06T02:44:22;7.72;;;5.25;;
56343;SDS011;42245;42.058;24.700;2022-07-06T02:46:48;7.38;;;5.53;;
56343;SDS011;42245;42.058;24.700;2022-07-06T02:49:13;12.25;;;5.20;;
56343;SDS011;42245;42.058;24.700;2022-07-06T02:51:38;7.03;;;4.97;;
56343;SDS011;42245;42.058;24.700;2022-07-06T02:54:04;6.85;;;5.55;;
56343;SDS011;42245;42.058;24.700;2022-07-06T02:56:29;10.25;;;5.82;;
56343;SDS011;42245;42.058;24.700;2022-07-06T02:58:55;7.13;;;5.57;;
56343;SDS011;42245;42.058;24.700;2022-07-06T03:01:20;13.13;;;5.53;;
56343;SDS011;42245;42.058;24.700;2022-07-06T03:03:46;7.20;;;5.20;;
56343;SDS011;42245;42.058;24.700;2022-07-06T03:06:11;10.10;;;5.30;;
56343;SDS011;42245;42.058;24.700;2022-07-06T03:08:36;8.77;;;5.40;;
56343;SDS011;42245;42.058;24.700;2022-07-06T03:11:02;10.32;;;5.03;;
56343;SDS011;42245;42.058;24.700;2022-07-06T03:13:27;9.65;;;5.70;;
56343;SDS011;42245;42.058;24.700;2022-07-06T03:15:53;12.48;;;5.70;;
56343;SDS011;42245;42.058;24.700;2022-07-06T03:18:19;11.50;;;5.82;;
56343;SDS011;42245;42.058;24.700;2022-07-06T03:20:44;9.10;;;5.88;;
56343;SDS011;42245;42.058;24.700;2022-07-06T03:23:10;9.38;;;6.00;;
56343;SDS011;42245;42.058;24.700;2022-07-06T03:25:35;9.80;;;5.90;;
56343;SDS011;42245;42.058;24.700;2022-07-06T03:28:00;15.70;;;6.40;;
56343;SDS011;42245;42.058;24.700;2022-07-06T03:30:26;9.98;;;5.65;;
56343;SDS011;42245;42.058;24.700;2022-07-06T03:32:51;8.00;;;5.72;;
56343;SDS011;42245;42.058;24.700;2022-07-06T03:35:17;7.90;;;5.68;;
56343;SDS011;42245;42.058;24.700;2022-07-06T03:37:42;9.90;;;6.30;;
56343;SDS011;42245;42.058;24.700;2022-07-06T03:40:08;14.75;;;6.40;;
56343;SDS011;42245;42.058;24.700;2022-07-06T03:42:35;10.73;;;6.07;;
56343;SDS011;42245;42.058;24.700;2022-07-06T03:45:01;9.40;;;6.22;;
56343;SDS011;42245;42.058;24.700;2022-07-06T03:47:26;9.25;;;6.05;;
56343;SDS011;42245;42.058;24.700;2022-07-06T03:49:52;9.23;;;6.03;;
56343;SDS011;42245;42.058;24.700;2022-07-06T03:52:17;10.43;;;5.40;;
56343;SDS011;42245;42.058;24.700;2022-07-06T03:54:42;8.75;;;5.68;;
56343;SDS011;42245;42.058;24.700;2022-07-06T03:57:08;8.93;;;5.88;;
56343;SDS011;42245;42.058;24.700;2022-07-06T03:59:33;15.48;;;6.25;;
56343;SDS011;42245;42.058;24.700;2022-07-06T04:01:59;9.70;;;5.88;;
56343;SDS011;42245;42.058;24.700;2022-07-06T04:04:24;7.63;;;5.88;;
56343;SDS011;42245;42.058;24.700;2022-07-06T04:06:50;16.20;;;6.22;;
56343;SDS011;42245;42.058;24.700;2022-07-06T04:09:15;16.13;;;5.97;;
56343;SDS011;42245;42.058;24.700;2022-07-06T04:11:40;8.20;;;5.63;;
56343;SDS011;42245;42.058;24.700;2022-07-06T04:14:06;10.57;;;5.95;;
56343;SDS011;42245;42.058;24.700;2022-07-06T04:16:31;7.28;;;5.60;;
56343;SDS011;42245;42.058;24.700;2022-07-06T04:18:57;13.07;;;6.13;;
56343;SDS011;42245;42.058;24.700;2022-07-06T04:21:22;7.18;;;5.63;;
56343;SDS011;42245;42.058;24.700;2022-07-06T04:23:47;10.75;;;5.75;;
56343;SDS011;42245;42.058;24.700;2022-07-06T04:26:13;8.63;;;5.53;;
56343;SDS011;42245;42.058;24.700;2022-07-06T04:28:38;9.70;;;5.90;;
56343;SDS011;42245;42.058;24.700;2022-07-06T04:31:04;11.70;;;6.20;;
56343;SDS011;42245;42.058;24.700;2022-07-06T04:33:29;9.05;;;5.50;;
56343;SDS011;42245;42.058;24.700;2022-07-06T04:35:54;9.70;;;6.25;;
56343;SDS011;42245;42.058;24.700;2022-07-06T04:38:20;11.75;;;6.03;;
56343;SDS011;42245;42.058;24.700;2022-07-06T04:40:45;16.55;;;6.20;;
56343;SDS011;42245;42.058;24.700;2022-07-06T04:43:13;12.90;;;6.05;;
56343;SDS011;42245;42.058;24.700;2022-07-06T04:45:39;14.00;;;6.05;;
56343;SDS011;42245;42.058;24.700;2022-07-06T04:48:04;9.50;;;6.60;;
56343;SDS011;42245;42.058;24.700;2022-07-06T04:50:31;14.73;;;6.70;;
56343;SDS011;42245;42.058;24.700;2022-07-06T04:52:58;9.10;;;5.80;;
56343;SDS011;42245;42.058;24.700;2022-07-06T04:55:23;15.73;;;6.40;;
56343;SDS011;42245;42.058;24.700;2022-07-06T04:57:48;10.38;;;6.40;;
56343;SDS011;42245;42.058;24.700;2022-07-06T05:00:16;9.65;;;6.25;;
56343;SDS011;42245;42.058;24.700;2022-07-06T05:02:42;12.80;;;9.02;;
56343;SDS011;42245;42.058;24.700;2022-07-06T05:05:07;17.98;;;9.75;;
56343;SDS011;42245;42.058;24.700;2022-07-06T05:07:34;11.90;;;7.45;;
56343;SDS011;42245;42.058;24.700;2022-07-06T05:10:04;8.38;;;6.28;;
56343;SDS011;42245;42.058;24.700;2022-07-06T05:12:34;11.35;;;7.10;;
56343;SDS011;42245;42.058;24.700;2022-07-06T05:15:00;12.50;;;6.78;;
56343;SDS011;42245;42.058;24.700;2022-07-06T05:17:25;9.32;;;7.18;;
56343;SDS011;42245;42.058;24.700;2022-07-06T05:19:51;10.88;;;7.15;;
56343;SDS011;42245;42.058;24.700;2022-07-06T05:22:17;10.45;;;7.28;;
56343;SDS011;42245;42.058;24.700;2022-07-06T05:24:42;9.48;;;7.25;;
56343;SDS011;42245;42.058;24.700;2022-07-06T05:27:07;9.95;;;7.15;;
56343;SDS011;42245;42.058;24.700;2022-07-06T05:29:33;8.00;;;7.00;;
56343;SDS011;42245;42.058;24.700;2022-07-06T05:31:58;8.40;;;7.03;;
56343;SDS011;42245;42.058;24.700;2022-07-06T05:34:24;8.65;;;7.32;;
56343;SDS011;42245;42.058;24.700;2022-07-06T05:36:49;10.85;;;7.47;;
56343;SDS011;42245;42.058;24.700;2022-07-06T05:39:14;8.25;;;7.32;;
56343;SDS011;42245;42.058;24.700;2022-07-06T05:41:44;10.13;;;7.40;;
56343;SDS011;42245;42.058;24.700;2022-07-06T05:44:10;11.50;;;7.60;;
56343;SDS011;42245;42.058;24.700;2022-07-06T05:46:35;13.05;;;7.82;;
56343;SDS011;42245;42.058;24.700;2022-07-06T05:49:00;10.82;;;7.55;;
56343;SDS011;42245;42.058;24.700;2022-07-06T05:51:45;9.75;;;7.57;;
56343;SDS011;42245;42.058;24.700;2022-07-06T05:54:10;8.02;;;7.22;;
56343;SDS011;42245;42.058;24.700;2022-07-06T05:56:35;8.02;;;7.28;;
56343;SDS011;42245;42.058;24.700;2022-07-06T05:59:01;9.95;;;7.72;;
56343;SDS011;42245;42.058;24.700;2022-07-06T06:01:26;13.43;;;7.90;;
56343;SDS011;42245;42.058;24.700;2022-07-06T06:03:52;12.13;;;8.60;;
56343;SDS011;42245;42.058;24.700;2022-07-06T06:06:17;10.90;;;7.90;;
56343;SDS011;42245;42.058;24.700;2022-07-06T06:08:43;11.05;;;8.48;;
56343;SDS011;42245;42.058;24.700;2022-07-06T06:11:08;10.13;;;7.95;;
56343;SDS011;42245;42.058;24.700;2022-07-06T06:13:33;11.48;;;8.10;;
56343;SDS011;42245;42.058;24.700;2022-07-06T06:15:59;12.88;;;8.45;;
56343;SDS011;42245;42.058;24.700;2022-07-06T06:18:24;12.63;;;8.13;;
56343;SDS011;42245;42.058;24.700;2022-07-06T06:20:50;9.65;;;8.35;;
56343;SDS011;42245;42.058;24.700;2022-07-06T06:23:15;9.32;;;7.90;;
56343;SDS011;42245;42.058;24.700;2022-07-06T06:25:40;8.52;;;7.63;;
56343;SDS011;42245;42.058;24.700;2022-07-06T06:28:07;11.52;;;7.90;;
56343;SDS011;42245;42.058;24.700;2022-07-06T06:30:33;8.15;;;7.35;;
56343;SDS011;42245;42.058;24.700;2022-07-06T06:33:12;8.68;;;7.53;;
56343;SDS011;42245;42.058;24.700;2022-07-06T06:35:49;8.63;;;7.82;;
56343;SDS011;42245;42.058;24.700;2022-07-06T06:38:16;10.13;;;7.68;;
56343;SDS011;42245;42.058;24.700;2022-07-06T06:40:43;9.68;;;7.90;;
56343;SDS011;42245;42.058;24.700;2022-07-06T06:43:08;9.80;;;7.90;;
56343;SDS011;42245;42.058;24.700;2022-07-06T06:45:34;8.45;;;7.65;;
56343;SDS011;42245;42.058;24.700;2022-07-06T06:48:00;12.27;;;8.35;;
56343;SDS011;42245;42.058;24.700;2022-07-06T06:50:25;9.88;;;8.63;;
56343;SDS011;42245;42.058;24.700;2022-07-06T06:52:51;11.80;;;8.20;;
56343;SDS011;42245;42.058;24.700;2022-07-06T06:55:17;9.98;;;8.77;;
56343;SDS011;42245;42.058;24.700;2022-07-06T06:57:43;14.23;;;9.40;;
56343;SDS011;42245;42.058;24.700;2022-07-06T07:00:09;10.73;;;9.50;;
56343;SDS011;42245;42.058;24.700;2022-07-06T07:02:35;10.65;;;9.30;;
56343;SDS011;42245;42.058;24.700;2022-07-06T07:05:01;11.55;;;9.32;;
56343;SDS011;42245;42.058;24.700;2022-07-06T07:07:27;11.20;;;9.40;;
56343;SDS011;42245;42.058;24.700;2022-07-06T07:09:52;15.57;;;9.85;;
56343;SDS011;42245;42.058;24.700;2022-07-06T07:12:17;12.30;;;9.90;;
56343;SDS011;42245;42.058;24.700;2022-07-06T07:14:43;10.57;;;9.52;;
56343;SDS011;42245;42.058;24.700;2022-07-06T07:17:09;12.93;;;10.45;;
56343;SDS011;42245;42.058;24.700;2022-07-06T07:19:36;14.35;;;9.82;;
56343;SDS011;42245;42.058;24.700;2022-07-06T07:22:02;12.77;;;10.05;;
56343;SDS011;42245;42.058;24.700;2022-07-06T07:24:27;12.57;;;9.68;;
56343;SDS011;42245;42.058;24.700;2022-07-06T07:26:53;11.00;;;9.82;;
56343;SDS011;42245;42.058;24.700;2022-07-06T07:29:18;10.65;;;9.55;;
56343;SDS011;42245;42.058;24.700;2022-07-06T07:31:43;11.00;;;9.80;;
56343;SDS011;42245;42.058;24.700;2022-07-06T07:34:09;12.15;;;9.88;;
56343;SDS011;42245;42.058;24.700;2022-07-06T07:36:34;12.00;;;9.45;;
56343;SDS011;42245;42.058;24.700;2022-07-06T07:39:00;12.15;;;9.88;;
56343;SDS011;42245;42.058;24.700;2022-07-06T07:41:26;13.07;;;9.68;;
56343;SDS011;42245;42.058;24.700;2022-07-06T07:43:51;11.25;;;9.57;;
56343;SDS011;42245;42.058;24.700;2022-07-06T07:46:17;10.68;;;9.30;;
56343;SDS011;42245;42.058;24.700;2022-07-06T07:48:42;10.55;;;9.10;;
56343;SDS011;42245;42.058;24.700;2022-07-06T07:51:07;12.68;;;9.70;;
56343;SDS011;42245;42.058;24.700;2022-07-06T07:53:33;12.77;;;9.30;;
56343;SDS011;42245;42.058;24.700;2022-07-06T07:55:59;17.63;;;8.82;;
56343;SDS011;42245;42.058;24.700;2022-07-06T07:58:24;10.05;;;9.05;;
56343;SDS011;42245;42.058;24.700;2022-07-06T08:00:50;11.23;;;9.82;;
56343;SDS011;42245;42.058;24.700;2022-07-06T08:03:15;15.27;;;9.20;;
56343;SDS011;42245;42.058;24.700;2022-07-06T08:05:40;10.88;;;9.63;;
56343;SDS011;42245;42.058;24.700;2022-07-06T08:08:06;9.73;;;8.73;;
56343;SDS011;42245;42.058;24.700;2022-07-06T08:10:32;12.05;;;9.98;;
56343;SDS011;42245;42.058;24.700;2022-07-06T08:12:57;11.70;;;9.10;;
56343;SDS011;42245;42.058;24.700;2022-07-06T08:15:22;12.10;;;8.93;;
56343;SDS011;42245;42.058;24.700;2022-07-06T08:17:48;10.25;;;8.48;;
56343;SDS011;42245;42.058;24.700;2022-07-06T08:20:13;11.35;;;9.23;;
56343;SDS011;42245;42.058;24.700;2022-07-06T08:22:39;9.95;;;8.48;;
56343;SDS011;42245;42.058;24.700;2022-07-06T08:25:05;10.10;;;8.77;;
56343;SDS011;42245;42.058;24.700;2022-07-06T08:27:31;12.20;;;8.35;;
56343;SDS011;42245;42.058;24.700;2022-07-06T08:29:56;9.77;;;8.82;;
56343;SDS011;42245;42.058;24.700;2022-07-06T08:32:22;10.30;;;9.30;;
56343;SDS011;42245;42.058;24.700;2022-07-06T08:34:47;11.23;;;8.52;;
56343;SDS011;42245;42.058;24.700;2022-07-06T08:37:13;9.90;;;8.68;;
56343;SDS011;42245;42.058;24.700;2022-07-06T08:39:38;11.45;;;8.73;;
56343;SDS011;42245;42.058;24.700;2022-07-06T08:42:04;9.93;;;8.80;;
56343;SDS011;42245;42.058;24.700;2022-07-06T08:44:30;14.25;;;8.75;;
56343;SDS011;42245;42.058;24.700;2022-07-06T08:46:57;12.07;;;9.13;;
56343;SDS011;42245;42.058;24.700;2022-07-06T08:49:23;9.63;;;8.73;;
56343;SDS011;42245;42.058;24.700;2022-07-06T08:51:50;12.07;;;9.93;;
56343;SDS011;42245;42.058;24.700;2022-07-06T08:54:16;10.80;;;9.75;;
56343;SDS011;42245;42.058;24.700;2022-07-06T08:56:43;10.38;;;9.13;;
56343;SDS011;42245;42.058;24.700;2022-07-06T08:59:08;11.02;;;9.27;;
56343;SDS011;42245;42.058;24.700;2022-07-06T09:01:36;11.23;;;9.52;;
56343;SDS011;42245;42.058;24.700;2022-07-06T09:04:04;26.92;;;9.48;;
56343;SDS011;42245;42.058;24.700;2022-07-06T09:06:31;11.35;;;9.60;;
56343;SDS011;42245;42.058;24.700;2022-07-06T09:08:58;13.10;;;9.82;;
56343;SDS011;42245;42.058;24.700;2022-07-06T09:11:25;13.10;;;10.52;;
56343;SDS011;42245;42.058;24.700;2022-07-06T09:13:50;10.82;;;9.63;;
56343;SDS011;42245;42.058;24.700;2022-07-06T09:16:16;13.18;;;10.98;;
56343;SDS011;42245;42.058;24.700;2022-07-06T09:18:45;13.48;;;11.18;;
56343;SDS011;42245;42.058;24.700;2022-07-06T09:21:11;15.25;;;10.73;;
56343;SDS011;42245;42.058;24.700;2022-07-06T09:23:52;16.48;;;10.77;;
56343;SDS011;42245;42.058;24.700;2022-07-06T09:26:21;11.93;;;10.70;;
56343;SDS011;42245;42.058;24.700;2022-07-06T09:28:47;12.85;;;10.65;;
56343;SDS011;42245;42.058;24.700;2022-07-06T09:31:12;12.82;;;11.10;;
56343;SDS011;42245;42.058;24.700;2022-07-06T09:33:38;11.57;;;10.32;;
56343;SDS011;42245;42.058;24.700;2022-07-06T09:36:03;11.18;;;10.02;;
56343;SDS011;42245;42.058;24.700;2022-07-06T09:38:31;15.80;;;10.90;;
56343;SDS011;42245;42.058;24.700;2022-07-06T09:40:56;13.70;;;10.63;;
56343;SDS011;42245;42.058;24.700;2022-07-06T09:43:22;13.35;;;10.32;;
56343;SDS011;42245;42.058;24.700;2022-07-06T09:45:49;11.80;;;10.45;;
56343;SDS011;42245;42.058;24.700;2022-07-06T09:48:19;13.57;;;10.65;;
56343;SDS011;42245;42.058;24.700;2022-07-06T09:50:50;14.27;;;10.75;;
56343;SDS011;42245;42.058;24.700;2022-07-06T09:53:18;15.38;;;11.07;;
56343;SDS011;42245;42.058;24.700;2022-07-06T09:55:45;14.38;;;10.60;;
56343;SDS011;42245;42.058;24.700;2022-07-06T09:58:14;12.45;;;10.07;;
56343;SDS011;42245;42.058;24.700;2022-07-06T10:00:41;16.52;;;9.95;;
56343;SDS011;42245;42.058;24.700;2022-07-06T10:03:08;12.73;;;10.48;;
56343;SDS011;42245;42.058;24.700;2022-07-06T10:05:38;10.98;;;9.88;;
56343;SDS011;42245;42.058;24.700;2022-07-06T10:08:05;15.18;;;10.27;;
56343;SDS011;42245;42.058;24.700;2022-07-06T10:10:31;12.18;;;10.57;;
56343;SDS011;42245;42.058;24.700;2022-07-06T10:12:57;10.55;;;9.52;;
56343;SDS011;42245;42.058;24.700;2022-07-06T10:15:24;15.88;;;9.85;;
56343;SDS011;42245;42.058;24.700;2022-07-06T10:17:52;14.50;;;9.85;;
56343;SDS011;42245;42.058;24.700;2022-07-06T10:20:18;11.13;;;10.02;;
56343;SDS011;42245;42.058;24.700;2022-07-06T10:22:45;12.82;;;9.85;;
56343;SDS011;42245;42.058;24.700;2022-07-06T10:25:13;12.68;;;9.95;;
56343;SDS011;42245;42.058;24.700;2022-07-06T10:27:40;11.40;;;9.35;;
56343;SDS011;42245;42.058;24.700;2022-07-06T10:30:08;14.18;;;9.23;;
56343;SDS011;42245;42.058;24.700;2022-07-06T10:32:34;12.98;;;9.60;;
56343;SDS011;42245;42.058;24.700;2022-07-06T10:35:01;11.65;;;9.63;;
56343;SDS011;42245;42.058;24.700;2022-07-06T10:37:27;13.90;;;9.13;;
56343;SDS011;42245;42.058;24.700;2022-07-06T10:39:53;12.43;;;9.30;;
56343;SDS011;42245;42.058;24.700;2022-07-06T10:50:35;9.10;;;7.57;;
56343;SDS011;42245;42.058;24.700;2022-07-06T10:53:01;9.48;;;7.88;;
56343;SDS011;42245;42.058;24.700;2022-07-06T10:55:34;11.85;;;7.65;;
56343;SDS011;42245;42.058;24.700;2022-07-06T10:58:01;11.77;;;8.10;;
56343;SDS011;42245;42.058;24.700;2022-07-06T11:00:42;9.85;;;7.47;;
56343;SDS011;42245;42.058;24.700;2022-07-06T11:06:32;9.90;;;7.30;;
56343;SDS011;42245;42.058;24.700;2022-07-06T11:09:00;10.70;;;7.68;;
56343;SDS011;42245;42.058;24.700;2022-07-06T11:14:04;10.60;;;7.28;;
56343;SDS011;42245;42.058;24.700;2022-07-06T11:16:38;11.15;;;7.30;;
56343;SDS011;42245;42.058;24.700;2022-07-06T11:19:09;10.00;;;7.43;;
56343;SDS011;42245;42.058;24.700;2022-07-06T11:24:20;12.13;;;7.57;;
56343;SDS011;42245;42.058;24.700;2022-07-06T11:26:49;13.55;;;8.65;;
56343;SDS011;42245;42.058;24.700;2022-07-06T11:29:18;13.88;;;7.75;;
56343;SDS011;42245;42.058;24.700;2022-07-06T11:31:46;9.60;;;8.38;;
56343;SDS011;42245;42.058;24.700;2022-07-06T11:34:13;11.18;;;8.27;;
56343;SDS011;42245;42.058;24.700;2022-07-06T11:36:43;14.55;;;8.93;;
56343;SDS011;42245;42.058;24.700;2022-07-06T11:39:08;13.27;;;8.73;;
56343;SDS011;42245;42.058;24.700;2022-07-06T11:41:34;14.30;;;9.05;;
56343;SDS011;42245;42.058;24.700;2022-07-06T11:44:01;9.82;;;8.30;;
56343;SDS011;42245;42.058;24.700;2022-07-06T11:46:27;10.57;;;8.07;;
56343;SDS011;42245;42.058;24.700;2022-07-06T11:48:55;8.85;;;7.85;;
56343;SDS011;42245;42.058;24.700;2022-07-06T11:51:22;13.43;;;9.02;;
56343;SDS011;42245;42.058;24.700;2022-07-06T11:53:51;12.48;;;8.45;;
56343;SDS011;42245;42.058;24.700;2022-07-06T11:56:17;10.20;;;8.60;;
56343;SDS011;42245;42.058;24.700;2022-07-06T11:58:57;10.68;;;8.93;;
56343;SDS011;42245;42.058;24.700;2022-07-06T12:01:27;11.43;;;9.25;;
56343;SDS011;42245;42.058;24.700;2022-07-06T12:03:56;10.57;;;8.20;;
56343;SDS011;42245;42.058;24.700;2022-07-06T12:06:23;10.10;;;9.10;;
56343;SDS011;42245;42.058;24.700;2022-07-06T12:08:50;13.10;;;8.73;;
56343;SDS011;42245;42.058;24.700;2022-07-06T12:11:20;10.52;;;8.57;;
56343;SDS011;42245;42.058;24.700;2022-07-06T12:13:57;9.27;;;8.30;;
56343;SDS011;42245;42.058;24.700;2022-07-06T12:16:30;11.27;;;9.48;;
56343;SDS011;42245;42.058;24.700;2022-07-06T12:18:59;14.07;;;9.55;;
56343;SDS011;42245;42.058;24.700;2022-07-06T12:21:25;15.60;;;9.75;;
56343;SDS011;42245;42.058;24.700;2022-07-06T12:23:51;14.80;;;9.82;;
56343;SDS011;42245;42.058;24.700;2022-07-06T12:26:21;10.90;;;9.52;;
56343;SDS011;42245;42.058;24.700;2022-07-06T12:29:06;15.60;;;10.00;;
56343;SDS011;42245;42.058;24.700;2022-07-06T12:31:36;11.55;;;9.73;;
56343;SDS011;42245;42.058;24.700;2022-07-06T12:34:03;14.98;;;10.38;;
56343;SDS011;42245;42.058;24.700;2022-07-06T12:36:29;12.95;;;9.80;;
56343;SDS011;42245;42.058;24.700;2022-07-06T12:38:55;11.98;;;9.38;;
56343;SDS011;42245;42.058;24.700;2022-07-06T12:41:25;14.20;;;9.20;;
56343;SDS011;42245;42.058;24.700;2022-07-06T12:44:05;12.07;;;9.80;;
56343;SDS011;42245;42.058;24.700;2022-07-06T12:46:36;13.23;;;8.95;;
56343;SDS011;42245;42.058;24.700;2022-07-06T12:49:03;10.63;;;9.27;;
56343;SDS011;42245;42.058;24.700;2022-07-06T12:54:22;11.05;;;8.80;;
56343;SDS011;42245;42.058;24.700;2022-07-06T12:57:12;10.73;;;9.52;;
56343;SDS011;42245;42.058;24.700;2022-07-06T12:59:45;11.70;;;9.77;;
56343;SDS011;42245;42.058;24.700;2022-07-06T13:02:17;10.18;;;8.82;;
56343;SDS011;42245;42.058;24.700;2022-07-06T13:04:53;12.32;;;9.07;;
56343;SDS011;42245;42.058;24.700;2022-07-06T13:07:20;10.80;;;9.73;;
56343;SDS011;42245;42.058;24.700;2022-07-06T13:09:45;10.02;;;9.02;;
56343;SDS011;42245;42.058;24.700;2022-07-06T13:12:10;12.00;;;8.80;;
56343;SDS011;42245;42.058;24.700;2022-07-06T13:14:36;13.20;;;9.15;;
56343;SDS011;42245;42.058;24.700;2022-07-06T13:17:01;11.93;;;8.73;;
56343;SDS011;42245;42.058;24.700;2022-07-06T13:19:27;13.70;;;8.75;;
56343;SDS011;42245;42.058;24.700;2022-07-06T13:21:52;11.05;;;8.90;;
56343;SDS011;42245;42.058;24.700;2022-07-06T13:24:18;10.02;;;8.60;;
56343;SDS011;42245;42.058;24.700;2022-07-06T13:26:43;9.68;;;8.68;;
56343;SDS011;42245;42.058;24.700;2022-07-06T13:29:09;11.32;;;9.23;;
56343;SDS011;42245;42.058;24.700;2022-07-06T13:31:36;10.45;;;8.90;;
56343;SDS011;42245;42.058;24.700;2022-07-06T13:34:01;15.05;;;9.50;;
56343;SDS011;42245;42.058;24.700;2022-07-06T13:36:27;10.43;;;9.40;;
56343;SDS011;42245;42.058;24.700;2022-07-06T13:38:52;11.73;;;9.73;;
56343;SDS011;42245;42.058;24.700;2022-07-06T13:41:19;13.07;;;10.23;;
56343;SDS011;42245;42.058;24.700;2022-07-06T13:43:44;11.30;;;9.63;;
56343;SDS011;42245;42.058;24.700;2022-07-06T13:46:10;10.98;;;9.63;;
56343;SDS011;42245;42.058;24.700;2022-07-06T13:48:36;12.82;;;10.18;;
56343;SDS011;42245;42.058;24.700;2022-07-06T13:51:01;13.48;;;10.88;;
56343;SDS011;42245;42.058;24.700;2022-07-06T13:53:27;12.15;;;10.15;;
56343;SDS011;42245;42.058;24.700;2022-07-06T13:55:52;15.77;;;10.30;;
56343;SDS011;42245;42.058;24.700;2022-07-06T13:58:18;13.05;;;10.88;;
56343;SDS011;42245;42.058;24.700;2022-07-06T14:00:44;16.33;;;11.20;;
56343;SDS011;42245;42.058;24.700;2022-07-06T14:03:10;18.38;;;11.57;;
56343;SDS011;42245;42.058;24.700;2022-07-06T14:05:35;13.88;;;10.85;;
56343;SDS011;42245;42.058;24.700;2022-07-06T14:08:01;13.07;;;11.30;;
56343;SDS011;42245;42.058;24.700;2022-07-06T14:10:26;13.85;;;11.43;;
56343;SDS011;42245;42.058;24.700;2022-07-06T14:12:52;21.85;;;11.52;;
56343;SDS011;42245;42.058;24.700;2022-07-06T14:15:18;12.18;;;10.88;;
56343;SDS011;42245;42.058;24.700;2022-07-06T14:17:43;12.20;;;11.00;;
56343;SDS011;42245;42.058;24.700;2022-07-06T14:20:09;15.93;;;11.60;;
56343;SDS011;42245;42.058;24.700;2022-07-06T14:22:34;16.75;;;11.35;;
56343;SDS011;42245;42.058;24.700;2022-07-06T14:25:00;16.88;;;11.40;;
56343;SDS011;42245;42.058;24.700;2022-07-06T14:27:25;12.32;;;11.02;;
56343;SDS011;42245;42.058;24.700;2022-07-06T14:29:51;13.30;;;11.13;;
56343;SDS011;42245;42.058;24.700;2022-07-06T14:32:16;12.80;;;11.50;;
56343;SDS011;42245;42.058;24.700;2022-07-06T14:34:42;17.67;;;11.88;;
56343;SDS011;42245;42.058;24.700;2022-07-06T14:37:07;15.48;;;13.00;;
56343;SDS011;42245;42.058;24.700;2022-07-06T14:39:33;15.43;;;12.38;;